Time;durP1;ratioP1;P1;durP2;ratioP2;P2;SDS_P1;SDS_P2;PMS_P1;PMS_P2;Temp;Humidity;BMP_temperature;BMP_pressure;BME280_temperature;BME280_humidity;BME280_pressure;Samples;Min_cycle;Max_cycle;Signal;HPM_P1;HPM_P2
2024/03/13 00:01:17;;;;;;;;;;;8.50;99.90;;;;;;5064822;28;19917;-85
2024/03/13 00:03:42;;;;;;;;;;;8.50;99.90;;;;;;5069878;28;19954;-85
2024/03/13 00:06:09;;;;;;;;;;;8.50;99.90;;;;;;5077951;28;19939;-86
2024/03/13 00:08:35;;;;;;;;;;;8.60;99.90;;;;;;5077981;28;19912;-85
2024/03/13 00:11:00;;;;;;;;;;;8.60;99.90;;;;;;5077030;28;20289;-86
2024/03/13 00:13:28;;;;;;;;;;;8.60;99.90;;;;;;5067676;28;19913;-87
2024/03/13 00:15:53;;;;;;;;;;;8.60;99.90;;;;;;5075879;28;19996;-85
2024/03/13 00:18:20;;;;;;;;;;;8.70;99.90;;;;;;5072114;28;19971;-85
2024/03/13 00:20:46;;;;;;;;;;;8.70;99.90;;;;;;5058465;28;19920;-85
2024/03/13 00:23:11;;;;;;;;;;;8.70;99.90;;;;;;5074939;28;20394;-85
2024/03/13 00:25:37;;;;;;;;;;;8.70;99.90;;;;;;5076102;28;19944;-86
2024/03/13 00:28:03;;;;;;;;;;;8.70;99.90;;;;;;5062384;28;19948;-86
2024/03/13 00:30:29;;;;;;;;;;;8.70;99.90;;;;;;5058644;28;19913;-85
2024/03/13 00:32:55;;;;;;;;;;;8.70;99.90;;;;;;5067542;28;19912;-88
2024/03/13 00:35:20;;;;;;;;;;;8.80;99.90;;;;;;5068934;28;20000;-85
2024/03/13 00:37:52;;;;;;;;;;;8.80;99.90;;;;;;5076483;28;19925;-86
2024/03/13 00:40:18;;;;;;;;;;;8.70;99.90;;;;;;5067810;28;20021;-86
2024/03/13 00:42:44;;;;;;;;;;;8.70;99.90;;;;;;5071060;28;19917;-87
2024/03/13 00:45:11;;;;;;;;;;;8.80;99.90;;;;;;5067535;28;20512;-85
2024/03/13 00:47:37;;;;;;;;;;;8.80;99.90;;;;;;5052972;28;20042;-85
2024/03/13 00:50:07;;;;;;;;;;;8.80;99.90;;;;;;5054492;28;19944;-86
2024/03/13 00:52:32;;;;;;;;;;;8.80;99.90;;;;;;5068636;28;19917;-85
2024/03/13 00:54:58;;;;;;;;;;;8.80;99.90;;;;;;5065864;28;19908;-86
2024/03/13 00:57:24;;;;;;;;;;;8.90;99.90;;;;;;5073913;28;19915;-85
2024/03/13 00:59:49;;;;;;;;;;;8.90;99.90;;;;;;5065229;28;20432;-85
2024/03/13 01:02:15;;;;;;;;;;;8.80;99.90;;;;;;5075677;28;19916;-85
2024/03/13 01:07:08;;;;;;;;;;;8.80;99.90;;;;;;5090437;28;19924;-83
2024/03/13 01:09:34;;;;;;;;;;;8.90;99.90;;;;;;5092062;28;19915;-84
2024/03/13 01:12:00;;;;;;;;;;;8.90;99.90;;;;;;5092130;28;20301;-84
2024/03/13 01:14:25;;;;;;;;;;;8.90;99.90;;;;;;5091471;28;19912;-84
2024/03/13 01:16:53;;;;;;;;;;;8.90;99.90;;;;;;5074810;28;19913;-83
2024/03/13 01:19:22;;;;;;;;;;;8.90;99.90;;;;;;5081316;28;19908;-84
2024/03/13 01:21:54;;;;;;;;;;;9.00;99.90;;;;;;5076395;28;20037;-84
2024/03/13 01:24:20;;;;;;;;;;;9.00;99.90;;;;;;5075127;28;19913;-84
2024/03/13 01:26:46;;;;;;;;;;;9.00;99.90;;;;;;5074702;28;20386;-84
2024/03/13 01:29:12;;;;;;;;;;;9.00;99.90;;;;;;5084204;28;19958;-85
2024/03/13 01:31:37;;;;;;;;;;;9.00;99.90;;;;;;5081500;28;19917;-85
2024/03/13 01:34:04;;;;;;;;;;;9.00;99.90;;;;;;5075344;28;19951;-85
2024/03/13 01:39:14;;;;;;;;;;;9.10;99.90;;;;;;5074115;28;20440;-85
2024/03/13 01:55:44;;;;;;;;;;;9.20;99.90;;;;;;5072099;28;19962;-85
2024/03/13 01:58:12;;;;;;;;;;;9.20;99.90;;;;;;5071850;28;19915;-85
2024/03/13 02:03:24;;;;;;;;;;;9.30;99.90;;;;;;5088602;28;19915;-85
2024/03/13 02:05:50;;;;;;;;;;;9.30;99.90;;;;;;5068621;28;19916;-85
2024/03/13 02:08:16;;;;;;;;;;;9.30;99.90;;;;;;5072050;28;20370;-84
2024/03/13 02:10:42;;;;;;;;;;;9.30;99.90;;;;;;5072201;28;20110;-84
2024/03/13 02:13:10;;;;;;;;;;;9.30;99.90;;;;;;5076910;28;20015;-84
2024/03/13 02:15:39;;;;;;;;;;;9.30;99.90;;;;;;5091910;28;19912;-85
2024/03/13 02:18:16;;;;;;;;;;;9.40;99.90;;;;;;5084465;28;19912;-84
2024/03/13 02:20:43;;;;;;;;;;;9.40;99.90;;;;;;5069513;28;19919;-84
2024/03/13 02:23:08;;;;;;;;;;;9.40;99.90;;;;;;5079893;28;19999;-85
2024/03/13 02:25:34;;;;;;;;;;;9.40;99.90;;;;;;5090210;28;20016;-85
2024/03/13 02:28:00;;;;;;;;;;;9.40;99.90;;;;;;5091758;28;19912;-84
2024/03/13 02:30:26;;;;;;;;;;;9.40;99.90;;;;;;5092107;28;19912;-84
2024/03/13 02:32:52;;;;;;;;;;;9.40;99.90;;;;;;5095513;28;19908;-85
2024/03/13 02:35:18;;;;;;;;;;;9.40;99.90;;;;;;5077500;28;20045;-85
2024/03/13 02:37:44;;;;;;;;;;;9.40;99.90;;;;;;5066493;28;19912;-84
2024/03/13 02:40:10;;;;;;;;;;;9.40;99.90;;;;;;5087633;28;20400;-85
2024/03/13 02:42:37;;;;;;;;;;;9.40;99.90;;;;;;5079797;28;19918;-84
2024/03/13 02:45:03;;;;;;;;;;;9.50;99.90;;;;;;5084004;28;19909;-84
2024/03/13 02:47:29;;;;;;;;;;;9.50;99.90;;;;;;5085391;28;19908;-85
2024/03/13 02:49:54;;;;;;;;;;;9.50;99.90;;;;;;5082999;28;20378;-85
2024/03/13 02:52:20;;;;;;;;;;;9.50;99.90;;;;;;5090147;28;19909;-84
2024/03/13 02:54:45;;;;;;;;;;;9.50;99.90;;;;;;5076777;28;19915;-85
2024/03/13 02:57:10;;;;;;;;;;;9.60;99.90;;;;;;5085849;28;20030;-83
2024/03/13 02:59:38;;;;;;;;;;;9.60;99.90;;;;;;5084632;28;19927;-86
2024/03/13 03:02:04;;;;;;;;;;;9.60;99.90;;;;;;5082379;28;20283;-85
2024/03/13 03:04:29;;;;;;;;;;;9.70;99.90;;;;;;5085156;28;19916;-85
2024/03/13 03:06:54;;;;;;;;;;;9.70;99.90;;;;;;5093416;28;19923;-84
2024/03/13 03:09:21;;;;;;;;;;;9.70;99.90;;;;;;5094660;28;19908;-84
2024/03/13 03:11:47;;;;;;;;;;;9.80;99.90;;;;;;5094649;28;20007;-85
2024/03/13 03:14:13;;;;;;;;;;;9.80;99.90;;;;;;5093447;28;19919;-85
2024/03/13 03:16:39;;;;;;;;;;;9.90;99.90;;;;;;5079130;28;20019;-85
2024/03/13 03:19:04;;;;;;;;;;;10.00;99.90;;;;;;5089168;28;19939;-85
2024/03/13 03:21:30;;;;;;;;;;;10.00;99.90;;;;;;5087928;28;19913;-85
2024/03/13 03:23:57;;;;;;;;;;;10.00;99.90;;;;;;5089775;28;20306;-85
2024/03/13 03:26:23;;;;;;;;;;;10.10;99.90;;;;;;5074104;28;19912;-83
2024/03/13 03:28:48;;;;;;;;;;;10.10;99.90;;;;;;5066182;28;19915;-85
2024/03/13 03:31:14;;;;;;;;;;;10.20;99.90;;;;;;5080295;28;19912;-84
2024/03/13 03:33:40;;;;;;;;;;;10.20;99.90;;;;;;5071257;28;20333;-84
2024/03/13 03:36:05;;;;;;;;;;;10.30;99.90;;;;;;5083616;28;19954;-85
2024/03/13 03:38:33;;;;;;;;;;;10.30;99.90;;;;;;5092690;28;19916;-85
2024/03/13 03:40:59;;;;;;;;;;;10.30;99.90;;;;;;5094184;28;19916;-85
2024/03/13 03:43:26;;;;;;;;;;;10.40;99.90;;;;;;5093502;28;20369;-84
2024/03/13 03:45:53;;;;;;;;;;;10.40;99.90;;;;;;5092975;28;19919;-85
2024/03/13 03:48:18;;;;;;;;;;;10.40;99.90;;;;;;5084075;28;19998;-85
2024/03/13 03:50:44;;;;;;;;;;;10.40;99.90;;;;;;5072692;28;19960;-85
2024/03/13 03:53:09;;;;;;;;;;;10.50;99.90;;;;;;5071741;28;19970;-85
2024/03/13 03:55:36;;;;;;;;;;;10.50;99.90;;;;;;5073242;28;20297;-85
2024/03/13 03:58:01;;;;;;;;;;;10.50;99.90;;;;;;5076777;28;19912;-85
2024/03/13 04:00:27;;;;;;;;;;;10.60;99.90;;;;;;5087987;28;20481;-85
2024/03/13 04:02:53;;;;;;;;;;;10.60;99.90;;;;;;5092190;28;20088;-85
2024/03/13 04:05:19;;;;;;;;;;;10.60;99.90;;;;;;5093669;28;19955;-85
2024/03/13 04:07:45;;;;;;;;;;;10.60;99.90;;;;;;5084932;28;20437;-84
2024/03/13 04:10:11;;;;;;;;;;;10.60;99.90;;;;;;5071838;28;19989;-85
2024/03/13 04:12:36;;;;;;;;;;;10.70;99.90;;;;;;5073458;28;19955;-84
2024/03/13 04:15:02;;;;;;;;;;;10.70;99.90;;;;;;5072773;28;19916;-85
2024/03/13 04:17:28;;;;;;;;;;;10.70;99.90;;;;;;5080578;28;20467;-85
2024/03/13 04:19:53;;;;;;;;;;;10.70;99.90;;;;;;5092291;28;19908;-85
2024/03/13 04:22:19;;;;;;;;;;;10.70;99.90;;;;;;5077028;28;19912;-84
2024/03/13 04:24:44;;;;;;;;;;;10.70;99.90;;;;;;5078424;28;19965;-85
2024/03/13 04:27:10;;;;;;;;;;;10.70;99.90;;;;;;5084697;28;20616;-85
2024/03/13 04:29:35;;;;;;;;;;;10.70;99.90;;;;;;5081942;28;20003;-85
2024/03/13 04:32:01;;;;;;;;;;;10.80;99.90;;;;;;5093550;28;19919;-86
2024/03/13 04:34:26;;;;;;;;;;;10.80;99.90;;;;;;5094835;28;19953;-85
2024/03/13 04:36:51;;;;;;;;;;;10.80;99.90;;;;;;5092138;28;19909;-85
2024/03/13 04:39:17;;;;;;;;;;;10.80;99.90;;;;;;5093317;28;20393;-85
2024/03/13 04:41:43;;;;;;;;;;;10.80;99.90;;;;;;5077478;28;19920;-85
2024/03/13 04:44:11;;;;;;;;;;;10.80;99.90;;;;;;5092879;28;20289;-84
2024/03/13 04:46:37;;;;;;;;;;;10.80;99.90;;;;;;5092796;28;19908;-85
2024/03/13 04:49:08;;;;;;;;;;;10.80;99.90;;;;;;5092866;28;20278;-85
2024/03/13 04:51:33;;;;;;;;;;;10.80;99.90;;;;;;5083362;28;19912;-85
2024/03/13 04:53:59;;;;;;;;;;;10.80;99.90;;;;;;5080954;28;19912;-85
2024/03/13 04:56:24;;;;;;;;;;;10.80;99.90;;;;;;5066694;28;20010;-83
2024/03/13 04:58:50;;;;;;;;;;;10.90;99.90;;;;;;5074286;28;20285;-85
2024/03/13 05:01:17;;;;;;;;;;;10.90;99.90;;;;;;5082867;28;19912;-84
2024/03/13 05:03:42;;;;;;;;;;;10.90;99.90;;;;;;5066390;28;19978;-85
2024/03/13 05:06:08;;;;;;;;;;;10.90;99.90;;;;;;5086636;28;19916;-85
2024/03/13 05:08:33;;;;;;;;;;;10.90;99.90;;;;;;5089631;28;19982;-85
2024/03/13 05:10:58;;;;;;;;;;;10.90;99.90;;;;;;5085257;28;19912;-85
2024/03/13 05:13:24;;;;;;;;;;;10.90;99.90;;;;;;5092699;28;19908;-85
2024/03/13 05:15:49;;;;;;;;;;;10.90;99.90;;;;;;5091374;28;19915;-85
2024/03/13 05:18:15;;;;;;;;;;;10.90;99.90;;;;;;5092641;28;19953;-85
2024/03/13 05:20:40;;;;;;;;;;;10.90;99.90;;;;;;5067525;28;20282;-85
2024/03/13 05:23:09;;;;;;;;;;;10.90;99.90;;;;;;5075995;28;19935;-84
2024/03/13 05:25:34;;;;;;;;;;;10.90;99.90;;;;;;5089428;28;20377;-84
2024/03/13 05:28:00;;;;;;;;;;;10.90;99.90;;;;;;5092409;28;19908;-84
2024/03/13 05:30:26;;;;;;;;;;;10.90;99.90;;;;;;5090750;28;19923;-84
2024/03/13 05:32:51;;;;;;;;;;;10.90;99.90;;;;;;5090927;28;19908;-85
2024/03/13 05:35:17;;;;;;;;;;;10.90;99.90;;;;;;5082027;28;19913;-85
2024/03/13 05:37:42;;;;;;;;;;;10.90;99.90;;;;;;5067720;28;20382;-84
2024/03/13 05:40:17;;;;;;;;;;;10.90;99.90;;;;;;5085499;28;20062;-85
2024/03/13 05:42:43;;;;;;;;;;;10.90;99.90;;;;;;5069424;28;19923;-84
2024/03/13 05:45:13;;;;;;;;;;;10.90;99.90;;;;;;5072435;28;19912;-84
2024/03/13 05:47:40;;;;;;;;;;;10.90;99.90;;;;;;5089481;28;19909;-85
2024/03/13 05:50:06;;;;;;;;;;;10.90;99.90;;;;;;5075344;28;19916;-85
2024/03/13 05:52:32;;;;;;;;;;;10.90;99.90;;;;;;5086234;28;19920;-84
2024/03/13 05:54:57;;;;;;;;;;;10.90;99.90;;;;;;5074347;28;20001;-84
2024/03/13 05:57:23;;;;;;;;;;;10.90;99.90;;;;;;5069705;28;19908;-84
2024/03/13 05:59:49;;;;;;;;;;;10.90;99.90;;;;;;5068574;28;20444;-84
2024/03/13 06:02:14;;;;;;;;;;;10.90;99.90;;;;;;5071691;28;19918;-84
2024/03/13 06:04:40;;;;;;;;;;;10.90;99.90;;;;;;5071033;28;19908;-84
2024/03/13 06:07:05;;;;;;;;;;;10.90;99.90;;;;;;5087300;28;19916;-85
2024/03/13 06:09:31;;;;;;;;;;;10.90;99.90;;;;;;5095904;28;19908;-85
2024/03/13 06:11:57;;;;;;;;;;;10.90;99.90;;;;;;5094352;28;19939;-84
2024/03/13 06:14:22;;;;;;;;;;;10.90;99.90;;;;;;5095758;28;19934;-84
2024/03/13 06:16:48;;;;;;;;;;;10.90;99.90;;;;;;5070057;28;19912;-85
2024/03/13 06:19:13;;;;;;;;;;;10.90;99.90;;;;;;5073490;28;19908;-84
2024/03/13 06:21:39;;;;;;;;;;;10.90;99.90;;;;;;5090687;28;19959;-85
2024/03/13 06:24:06;;;;;;;;;;;11.00;99.90;;;;;;5083053;28;19908;-84
2024/03/13 06:26:31;;;;;;;;;;;11.00;99.90;;;;;;5090207;28;19912;-85
2024/03/13 06:31:44;;;;;;;;;;;11.00;99.90;;;;;;5082900;28;20354;-85
2024/03/13 06:34:10;;;;;;;;;;;11.00;99.90;;;;;;5076903;28;19909;-85
2024/03/13 06:36:42;;;;;;;;;;;11.00;99.90;;;;;;5075294;28;19909;-85
2024/03/13 06:39:09;;;;;;;;;;;11.00;99.90;;;;;;5088003;28;19999;-85
2024/03/13 06:41:35;;;;;;;;;;;11.10;99.90;;;;;;5078063;28;19920;-85
2024/03/13 06:44:02;;;;;;;;;;;11.10;99.90;;;;;;5073294;28;19995;-85
2024/03/13 06:46:32;;;;;;;;;;;11.10;99.90;;;;;;5087942;28;19912;-84
2024/03/13 06:48:58;;;;;;;;;;;11.10;99.90;;;;;;5075886;28;19920;-84
2024/03/13 06:51:24;;;;;;;;;;;11.10;99.90;;;;;;5081855;28;19916;-86
2024/03/13 06:53:49;;;;;;;;;;;11.10;99.90;;;;;;5078519;28;19916;-85
2024/03/13 06:56:16;;;;;;;;;;;11.20;99.90;;;;;;5089099;28;19937;-85
2024/03/13 06:58:42;;;;;;;;;;;11.20;99.90;;;;;;5090659;28;19912;-84
2024/03/13 07:01:12;;;;;;;;;;;11.20;99.90;;;;;;5095744;28;19939;-82
2024/03/13 07:03:38;;;;;;;;;;;11.30;99.90;;;;;;5073457;28;19942;-81
2024/03/13 07:06:04;;;;;;;;;;;11.30;99.90;;;;;;5081019;28;19941;-82
2024/03/13 07:08:31;;;;;;;;;;;11.30;99.90;;;;;;5090555;28;20338;-82
2024/03/13 07:10:56;;;;;;;;;;;11.30;99.90;;;;;;5088318;28;19912;-81
2024/03/13 07:13:24;;;;;;;;;;;11.30;99.90;;;;;;5080042;28;19913;-83
2024/03/13 07:15:49;;;;;;;;;;;11.30;99.90;;;;;;5079635;28;19913;-83
2024/03/13 07:18:15;;;;;;;;;;;11.40;99.90;;;;;;5077712;28;20011;-83
2024/03/13 07:20:41;;;;;;;;;;;11.40;99.90;;;;;;5072122;28;19916;-83
2024/03/13 07:23:08;;;;;;;;;;;11.40;99.90;;;;;;5083265;28;19923;-83
2024/03/13 07:25:34;;;;;;;;;;;11.40;99.90;;;;;;5079294;28;19909;-83
2024/03/13 07:28:00;;;;;;;;;;;11.40;99.90;;;;;;5094653;28;19921;-83
2024/03/13 07:30:27;;;;;;;;;;;11.50;99.90;;;;;;5080724;28;19958;-83
2024/03/13 07:32:53;;;;;;;;;;;11.50;99.90;;;;;;5091095;28;19912;-82
2024/03/13 07:35:18;;;;;;;;;;;11.50;99.90;;;;;;5090705;28;19959;-82
2024/03/13 07:37:43;;;;;;;;;;;11.50;99.90;;;;;;5074481;28;19956;-83
2024/03/13 07:40:10;;;;;;;;;;;11.50;99.90;;;;;;5076741;28;19916;-82
2024/03/13 07:42:36;;;;;;;;;;;11.40;99.90;;;;;;5086449;28;19917;-82
2024/03/13 07:45:01;;;;;;;;;;;11.40;99.90;;;;;;5085928;28;19927;-83
2024/03/13 07:47:27;;;;;;;;;;;11.40;99.90;;;;;;5083127;28;19915;-83
2024/03/13 07:49:52;;;;;;;;;;;11.40;99.90;;;;;;5093758;28;19920;-82
2024/03/13 07:52:18;;;;;;;;;;;11.40;99.90;;;;;;5081055;28;19968;-85
2024/03/13 07:54:44;;;;;;;;;;;11.40;99.90;;;;;;5082026;28;19969;-83
2024/03/13 07:57:11;;;;;;;;;;;11.40;99.90;;;;;;5081605;28;19909;-85
2024/03/13 07:59:37;;;;;;;;;;;11.50;99.90;;;;;;5074715;28;20007;-85
2024/03/13 08:02:04;;;;;;;;;;;11.50;99.90;;;;;;5080209;28;19960;-86
2024/03/13 08:04:30;;;;;;;;;;;11.60;99.90;;;;;;5082919;28;19908;-84
2024/03/13 08:06:57;;;;;;;;;;;11.60;99.90;;;;;;5089521;28;19916;-84
2024/03/13 08:09:27;;;;;;;;;;;11.60;99.90;;;;;;5097588;28;20092;-84
2024/03/13 08:11:54;;;;;;;;;;;11.60;99.90;;;;;;5090880;28;19934;-85
2024/03/13 08:14:20;;;;;;;;;;;11.70;99.90;;;;;;5085133;28;19916;-84
2024/03/13 08:16:46;;;;;;;;;;;11.80;99.90;;;;;;5079590;28;19935;-85
2024/03/13 08:19:11;;;;;;;;;;;11.90;99.90;;;;;;5092801;28;19912;-85
2024/03/13 08:21:37;;;;;;;;;;;12.00;99.90;;;;;;5086426;28;19917;-84
2024/03/13 08:24:03;;;;;;;;;;;12.10;99.90;;;;;;5092801;28;19912;-85
2024/03/13 08:26:29;;;;;;;;;;;12.20;99.90;;;;;;5100090;28;19993;-85
2024/03/13 08:28:54;;;;;;;;;;;12.30;99.90;;;;;;5092965;28;19912;-85
2024/03/13 08:31:20;;;;;;;;;;;12.40;99.90;;;;;;5091851;28;21722;-84
2024/03/13 08:33:46;;;;;;;;;;;12.50;99.90;;;;;;5072558;28;19916;-84
2024/03/13 08:36:12;;;;;;;;;;;12.70;99.90;;;;;;5062628;28;19916;-82
2024/03/13 08:38:38;;;;;;;;;;;12.80;98.50;;;;;;5074982;28;19951;-83
2024/03/13 08:41:03;;;;;;;;;;;13.00;91.80;;;;;;5086572;28;19964;-82
2024/03/13 08:43:28;;;;;;;;;;;13.10;74.00;;;;;;5068720;28;20386;-84
2024/03/13 08:45:54;;;;;;;;;;;13.20;53.80;;;;;;5083495;28;19920;-84
2024/03/13 08:48:20;;;;;;;;;;;13.30;46.50;;;;;;5085552;28;19957;-84
2024/03/13 08:50:45;;;;;;;;;;;13.50;32.40;;;;;;5071100;28;19913;-83
2024/03/13 08:53:14;;;;;;;;;;;13.70;24.30;;;;;;5070932;28;19995;-83
2024/03/13 08:55:40;;;;;;;;;;;13.90;12.00;;;;;;5080506;28;19920;-85
2024/03/13 08:58:05;;;;;;;;;;;13.90;1.00;;;;;;5080567;28;19912;-84
2024/03/13 09:00:31;;;;;;;;;;;13.90;1.00;;;;;;5081429;28;19919;-85
2024/03/13 09:02:59;;;;;;;;;;;13.80;1.00;;;;;;5081871;28;19924;-85
2024/03/13 09:05:25;;;;;;;;;;;13.60;1.00;;;;;;5083944;28;20011;-83
2024/03/13 09:07:50;;;;;;;;;;;13.60;1.00;;;;;;5080528;28;19955;-84
2024/03/13 09:10:18;;;;;;;;;;;13.50;1.00;;;;;;5081984;28;19965;-83
2024/03/13 09:12:45;;;;;;;;;;;13.50;1.00;;;;;;5085593;28;19909;-84
2024/03/13 09:15:11;;;;;;;;;;;13.40;1.00;;;;;;5072843;28;19909;-85
2024/03/13 09:17:36;;;;;;;;;;;13.40;1.00;;;;;;5089277;28;19947;-85
2024/03/13 09:20:02;;;;;;;;;;;13.40;1.00;;;;;;5099296;28;19919;-85
2024/03/13 09:22:27;;;;;;;;;;;13.30;1.00;;;;;;5082691;28;19916;-85
2024/03/13 09:24:53;;;;;;;;;;;13.30;1.00;;;;;;5081892;28;19931;-85
2024/03/13 09:27:19;;;;;;;;;;;13.20;1.00;;;;;;5069361;28;20000;-83
2024/03/13 09:29:44;;;;;;;;;;;13.20;1.00;;;;;;5077054;28;19920;-85
2024/03/13 09:32:10;;;;;;;;;;;13.20;1.00;;;;;;5077528;28;19912;-83
2024/03/13 09:34:35;;;;;;;;;;;13.10;1.00;;;;;;5074562;28;20392;-84
2024/03/13 09:37:04;;;;;;;;;;;13.10;1.00;;;;;;5085153;28;19982;-85
2024/03/13 09:39:32;;;;;;;;;;;13.00;6.80;;;;;;5068289;28;19952;-85
2024/03/13 09:41:58;;;;;;;;;;;13.10;10.20;;;;;;5096644;28;20337;-84
2024/03/13 09:44:24;;;;;;;;;;;13.10;9.50;;;;;;5084907;28;19912;-83
2024/03/13 09:46:51;;;;;;;;;;;13.20;7.50;;;;;;5086715;28;19913;-85
2024/03/13 09:49:18;;;;;;;;;;;13.20;6.20;;;;;;5079704;28;19927;-83
2024/03/13 09:51:47;;;;;;;;;;;13.20;7.60;;;;;;5077337;28;20289;-84
2024/03/13 09:54:12;;;;;;;;;;;13.30;1.00;;;;;;5077839;28;19912;-83
2024/03/13 09:56:40;;;;;;;;;;;13.30;1.00;;;;;;5076433;28;20394;-84
2024/03/13 09:59:08;;;;;;;;;;;13.40;1.00;;;;;;5093039;28;20286;-85
2024/03/13 10:01:35;;;;;;;;;;;13.50;1.00;;;;;;5092905;28;19999;-85
2024/03/13 10:04:10;;;;;;;;;;;13.60;1.00;;;;;;5092056;28;19962;-85
2024/03/13 10:06:37;;;;;;;;;;;13.60;1.00;;;;;;5095487;28;19920;-84
2024/03/13 10:09:12;;;;;;;;;;;13.80;1.00;;;;;;5102526;28;19931;-85
2024/03/13 10:11:44;;;;;;;;;;;14.00;1.00;;;;;;5102548;28;20469;-85
2024/03/13 10:14:11;;;;;;;;;;;14.10;1.00;;;;;;5092063;28;20015;-85
2024/03/13 10:16:39;;;;;;;;;;;14.30;1.00;;;;;;5078299;28;20007;-86
2024/03/13 10:19:04;;;;;;;;;;;14.50;1.00;;;;;;5085222;28;19908;-85
2024/03/13 10:21:30;;;;;;;;;;;14.80;1.00;;;;;;5083697;28;19923;-86
2024/03/13 10:23:56;;;;;;;;;;;15.10;1.00;;;;;;5084809;28;19909;-85
2024/03/13 10:26:22;;;;;;;;;;;15.20;1.00;;;;;;5096161;28;19908;-86
2024/03/13 10:28:48;;;;;;;;;;;15.10;1.00;;;;;;5087438;28;19912;-85
2024/03/13 10:31:15;;;;;;;;;;;15.10;1.00;;;;;;5095897;28;20390;-86
2024/03/13 10:33:41;;;;;;;;;;;15.10;1.00;;;;;;5107848;28;19923;-86
2024/03/13 10:36:07;;;;;;;;;;;15.00;99.90;;;;;;5109033;28;19968;-86
2024/03/13 10:38:35;;;;;;;;;;;15.10;99.90;;;;;;5087162;28;19923;-85
2024/03/13 10:41:01;;;;;;;;;;;15.10;99.90;;;;;;5093927;28;19919;-84
2024/03/13 10:43:33;;;;;;;;;;;15.30;99.90;;;;;;5102130;28;20289;-85
2024/03/13 10:45:58;;;;;;;;;;;15.30;99.90;;;;;;5076815;28;19941;-85
2024/03/13 10:48:24;;;;;;;;;;;15.20;99.90;;;;;;5103813;28;19912;-86
2024/03/13 10:50:50;;;;;;;;;;;15.00;99.90;;;;;;5095025;28;19972;-85
2024/03/13 10:53:16;;;;;;;;;;;14.80;99.90;;;;;;5099847;28;20398;-86
2024/03/13 10:55:42;;;;;;;;;;;14.60;99.90;;;;;;5082966;28;20405;-85
2024/03/13 10:58:20;;;;;;;;;;;14.40;99.90;;;;;;5071459;28;19912;-84
2024/03/13 11:00:46;;;;;;;;;;;14.30;1.00;;;;;;5072987;28;19969;-85
2024/03/13 11:03:12;;;;;;;;;;;14.10;1.00;;;;;;5067007;28;20007;-84
2024/03/13 11:05:38;;;;;;;;;;;14.10;1.00;;;;;;5072301;28;19978;-84
2024/03/13 11:08:06;;;;;;;;;;;14.10;1.00;;;;;;5074976;28;19977;-83
2024/03/13 11:10:32;;;;;;;;;;;14.10;1.00;;;;;;5075107;28;19916;-83
2024/03/13 11:12:59;;;;;;;;;;;14.10;1.00;;;;;;5073114;28;20405;-84
2024/03/13 11:15:29;;;;;;;;;;;14.10;1.00;;;;;;5085023;28;19912;-84
2024/03/13 11:17:56;;;;;;;;;;;14.30;1.00;;;;;;5079725;28;19936;-84
2024/03/13 11:20:23;;;;;;;;;;;14.50;1.00;;;;;;5082909;28;19920;-85
2024/03/13 11:22:54;;;;;;;;;;;14.60;1.00;;;;;;5077104;28;19920;-85
2024/03/13 11:25:20;;;;;;;;;;;14.70;99.90;;;;;;5082126;28;19912;-83
2024/03/13 11:27:51;;;;;;;;;;;14.60;99.90;;;;;;5086865;28;19920;-84
2024/03/13 11:30:19;;;;;;;;;;;14.50;99.90;;;;;;5078251;28;19970;-83
2024/03/13 11:32:45;;;;;;;;;;;14.50;99.90;;;;;;5084029;28;19936;-83
2024/03/13 11:35:11;;;;;;;;;;;14.60;99.90;;;;;;5077478;28;20342;-83
2024/03/13 11:37:37;;;;;;;;;;;14.60;99.90;;;;;;5079117;28;19966;-84
2024/03/13 11:40:03;;;;;;;;;;;14.60;99.90;;;;;;5082913;28;20420;-84
2024/03/13 11:42:29;;;;;;;;;;;14.50;99.90;;;;;;5080042;28;19916;-83
2024/03/13 11:45:18;;;;;;;;;;;14.50;99.90;;;;;;5095952;28;19912;-83
2024/03/13 11:47:44;;;;;;;;;;;14.40;99.90;;;;;;5072908;28;19912;-83
2024/03/13 11:50:10;;;;;;;;;;;14.30;99.90;;;;;;5080605;28;19908;-84
2024/03/13 11:52:37;;;;;;;;;;;14.20;1.00;;;;;;5073099;28;19912;-84
2024/03/13 11:55:24;;;;;;;;;;;14.20;1.00;;;;;;5081210;28;19923;-84
2024/03/13 11:57:50;;;;;;;;;;;14.20;99.90;;;;;;5071107;28;19987;-83
2024/03/13 12:00:21;;;;;;;;;;;14.30;99.90;;;;;;5066947;28;20746;-83
2024/03/13 12:02:47;;;;;;;;;;;14.40;99.90;;;;;;5071357;28;19917;-82
2024/03/13 12:05:30;;;;;;;;;;;14.60;99.90;;;;;;5070392;28;19917;-83
2024/03/13 12:07:55;;;;;;;;;;;14.90;99.90;;;;;;5069705;28;19912;-84
2024/03/13 12:10:21;;;;;;;;;;;15.30;99.90;;;;;;5072514;28;20464;-83
2024/03/13 12:12:46;;;;;;;;;;;15.50;1.00;;;;;;5072910;28;19919;-84
2024/03/13 12:15:15;;;;;;;;;;;15.50;1.00;;;;;;5074130;28;19920;-83
2024/03/13 12:17:41;;;;;;;;;;;15.30;1.00;;;;;;5076349;28;19966;-82
2024/03/13 12:20:12;;;;;;;;;;;15.30;1.00;;;;;;5071067;28;20386;-84
2024/03/13 12:22:38;;;;;;;;;;;15.20;1.00;;;;;;5070217;28;19917;-84
2024/03/13 12:25:05;;;;;;;;;;;15.10;1.00;;;;;;5084718;28;20065;-84
2024/03/13 12:27:31;;;;;;;;;;;15.00;1.00;;;;;;5091383;28;19919;-84
2024/03/13 12:29:57;;;;;;;;;;;15.20;3.60;;;;;;5073407;28;19920;-84
2024/03/13 12:32:23;;;;;;;;;;;15.50;1.00;;;;;;5080515;28;19912;-84
2024/03/13 12:34:48;;;;;;;;;;;15.60;99.90;;;;;;5080414;28;20529;-85
2024/03/13 12:37:14;;;;;;;;;;;15.60;99.90;;;;;;5081809;28;19908;-84
2024/03/13 12:39:40;;;;;;;;;;;15.50;99.90;;;;;;5081459;28;19909;-84
2024/03/13 12:42:08;;;;;;;;;;;15.30;1.00;;;;;;5075070;28;19913;-83
2024/03/13 12:44:33;;;;;;;;;;;15.10;99.90;;;;;;5080121;28;19959;-85
2024/03/13 12:47:00;;;;;;;;;;;15.10;99.90;;;;;;5082486;28;19912;-84
2024/03/13 12:49:25;;;;;;;;;;;15.00;99.90;;;;;;5074366;28;19921;-84
2024/03/13 12:51:52;;;;;;;;;;;14.90;1.00;;;;;;5082920;28;20361;-84
2024/03/13 12:54:18;;;;;;;;;;;14.80;1.00;;;;;;5099202;28;19940;-84
2024/03/13 12:56:43;;;;;;;;;;;14.70;20.40;;;;;;5085836;28;19920;-84
2024/03/13 12:59:11;;;;;;;;;;;14.60;1.00;;;;;;5075464;28;19982;-84
2024/03/13 13:01:37;;;;;;;;;;;14.60;1.00;;;;;;5083023;28;19913;-85
2024/03/13 13:04:03;;;;;;;;;;;14.60;90.40;;;;;;5083590;28;19980;-84
2024/03/13 13:06:29;;;;;;;;;;;14.50;72.60;;;;;;5088540;22;19947;-83
2024/03/13 13:08:55;;;;;;;;;;;14.50;99.90;;;;;;5050881;28;19909;-84
2024/03/13 13:11:20;;;;;;;;;;;14.40;80.50;;;;;;5038595;28;19920;-83
2024/03/13 13:13:46;;;;;;;;;;;14.30;99.90;;;;;;5044742;28;19917;-83
2024/03/13 13:16:12;;;;;;;;;;;14.20;99.90;;;;;;5037012;28;19963;-83
2024/03/13 13:18:44;;;;;;;;;;;14.20;39.10;;;;;;5053153;28;19952;-87
2024/03/13 13:21:10;;;;;;;;;;;14.30;99.90;;;;;;5046961;28;19920;-83
2024/03/13 13:23:36;;;;;;;;;;;14.40;1.00;;;;;;5055630;28;19913;-84
2024/03/13 13:26:01;;;;;;;;;;;14.50;99.90;;;;;;5054552;28;20337;-84
2024/03/13 13:28:28;;;;;;;;;;;14.50;99.90;;;;;;5056541;28;20291;-83
2024/03/13 13:30:55;;;;;;;;;;;14.60;1.00;;;;;;5053746;28;19913;-85
2024/03/13 13:33:20;;;;;;;;;;;14.70;99.90;;;;;;5048661;28;19940;-84
2024/03/13 13:35:46;;;;;;;;;;;14.70;1.00;;;;;;5057169;28;20371;-84
2024/03/13 13:38:12;;;;;;;;;;;14.70;1.00;;;;;;5062416;28;20406;-84
2024/03/13 13:40:38;;;;;;;;;;;14.60;1.00;;;;;;5066866;28;19920;-85
2024/03/13 13:43:04;;;;;;;;;;;14.60;45.20;;;;;;5064058;28;20015;-84
2024/03/13 13:45:29;;;;;;;;;;;14.50;99.90;;;;;;5054559;28;19975;-83
2024/03/13 13:47:55;;;;;;;;;;;14.50;1.00;;;;;;5061833;28;19935;-85
2024/03/13 13:50:20;;;;;;;;;;;14.60;99.10;;;;;;5064250;28;19920;-83
2024/03/13 13:52:46;;;;;;;;;;;14.60;99.90;;;;;;5064525;28;19909;-84
2024/03/13 13:55:12;;;;;;;;;;;14.70;99.90;;;;;;5064255;28;20329;-84
2024/03/13 13:57:38;;;;;;;;;;;14.80;1.00;;;;;;5064134;28;19912;-84
2024/03/13 14:00:10;;;;;;;;;;;14.90;99.90;;;;;;5063725;28;19909;-84
2024/03/13 14:02:36;;;;;;;;;;;14.90;99.90;;;;;;5054439;28;19913;-83
2024/03/13 14:05:05;;;;;;;;;;;14.90;99.90;;;;;;5061228;28;19963;-85
2024/03/13 14:07:33;;;;;;;;;;;14.90;1.00;;;;;;5062625;28;19953;-84
2024/03/13 14:09:58;;;;;;;;;;;14.90;99.90;;;;;;5065999;28;19909;-85
2024/03/13 14:12:32;;;;;;;;;;;14.80;1.00;;;;;;5062459;28;20015;-85
2024/03/13 14:15:02;;;;;;;;;;;14.90;51.00;;;;;;5066294;28;19940;-84
2024/03/13 14:17:29;;;;;;;;;;;14.80;1.00;;;;;;5064714;28;19935;-84
2024/03/13 14:19:57;;;;;;;;;;;14.70;1.00;;;;;;5065971;28;19920;-85
2024/03/13 14:22:23;;;;;;;;;;;14.70;3.40;;;;;;5066205;28;19917;-85
2024/03/13 14:24:48;;;;;;;;;;;14.60;99.90;;;;;;5059621;28;19948;-85
2024/03/13 14:27:14;;;;;;;;;;;14.50;1.00;;;;;;5064482;28;19913;-83
2024/03/13 14:29:41;;;;;;;;;;;14.40;99.90;;;;;;5065274;28;19916;-84
2024/03/13 14:32:10;;;;;;;;;;;14.40;1.00;;;;;;5065232;28;19948;-85
2024/03/13 14:34:39;;;;;;;;;;;14.40;99.90;;;;;;5049987;28;20275;-83
2024/03/13 14:37:05;;;;;;;;;;;14.40;1.00;;;;;;5059608;28;19909;-84
2024/03/13 14:39:31;;;;;;;;;;;14.30;99.90;;;;;;5058114;28;20515;-83
2024/03/13 14:41:57;;;;;;;;;;;14.30;99.90;;;;;;5054793;28;20008;-83
2024/03/13 14:44:22;;;;;;;;;;;14.30;99.90;;;;;;5054583;28;19971;-81